sensor_id;sensor_type;location;lat;lon;timestamp;pressure;altitude;pressure_sealevel;temperature;humidity
17311;BME280;8773;43.300;0.394;2023-08-20T00:01:52;99974.34;;;25.17;68.75
17311;BME280;8773;43.300;0.394;2023-08-20T00:04:25;99979.81;;;25.17;68.79
17311;BME280;8773;43.300;0.394;2023-08-20T00:06:53;99986.31;;;25.27;68.41
17311;BME280;8773;43.300;0.394;2023-08-20T00:09:21;99983.91;;;25.31;68.37
17311;BME280;8773;43.300;0.394;2023-08-20T00:11:48;99988.16;;;25.39;67.97
17311;BME280;8773;43.300;0.394;2023-08-20T00:14:17;99993.78;;;25.49;67.63
17311;BME280;8773;43.300;0.394;2023-08-20T00:16:46;99990.47;;;25.30;68.04
17311;BME280;8773;43.300;0.394;2023-08-20T00:19:14;99988.03;;;25.17;68.97
17311;BME280;8773;43.300;0.394;2023-08-20T00:21:42;99986.50;;;24.81;69.95
17311;BME280;8773;43.300;0.394;2023-08-20T00:24:11;99991.00;;;24.87;69.79
17311;BME280;8773;43.300;0.394;2023-08-20T00:26:40;99991.66;;;24.54;70.84
17311;BME280;8773;43.300;0.394;2023-08-20T00:29:07;99992.91;;;24.46;71.23
17311;BME280;8773;43.300;0.394;2023-08-20T00:31:36;99993.44;;;24.60;70.72
17311;BME280;8773;43.300;0.394;2023-08-20T00:34:03;99996.94;;;24.44;71.17
17311;BME280;8773;43.300;0.394;2023-08-20T00:36:34;99995.13;;;24.26;71.63
17311;BME280;8773;43.300;0.394;2023-08-20T00:39:01;100001.06;;;24.23;71.46
17311;BME280;8773;43.300;0.394;2023-08-20T00:41:29;100001.19;;;24.40;70.75
17311;BME280;8773;43.300;0.394;2023-08-20T00:43:56;100002.41;;;24.44;70.81
17311;BME280;8773;43.300;0.394;2023-08-20T00:46:24;100008.88;;;24.54;70.51
17311;BME280;8773;43.300;0.394;2023-08-20T00:48:52;100003.78;;;24.35;71.09
17311;BME280;8773;43.300;0.394;2023-08-20T00:51:20;100002.25;;;24.27;71.17
17311;BME280;8773;43.300;0.394;2023-08-20T00:53:48;100008.78;;;24.14;71.61
17311;BME280;8773;43.300;0.394;2023-08-20T00:56:18;100007.34;;;24.12;71.37
17311;BME280;8773;43.300;0.394;2023-08-20T00:58:46;100010.00;;;23.95;71.79
17311;BME280;8773;43.300;0.394;2023-08-20T01:01:13;99997.03;;;23.79;71.95
17311;BME280;8773;43.300;0.394;2023-08-20T01:03:41;100014.00;;;23.81;72.11
17311;BME280;8773;43.300;0.394;2023-08-20T01:06:22;100001.78;;;23.83;72.13
17311;BME280;8773;43.300;0.394;2023-08-20T01:08:56;100015.38;;;23.72;72.49
17311;BME280;8773;43.300;0.394;2023-08-20T01:11:30;100013.91;;;23.87;71.48
17311;BME280;8773;43.300;0.394;2023-08-20T01:13:59;100010.63;;;23.67;72.77
17311;BME280;8773;43.300;0.394;2023-08-20T01:16:26;100019.78;;;23.61;72.81
17311;BME280;8773;43.300;0.394;2023-08-20T01:18:54;100018.81;;;23.67;72.51
17311;BME280;8773;43.300;0.394;2023-08-20T01:21:30;100009.94;;;23.72;72.07
17311;BME280;8773;43.300;0.394;2023-08-20T01:24:11;100009.50;;;23.75;71.94
17311;BME280;8773;43.300;0.394;2023-08-20T01:26:56;100007.13;;;23.78;71.47
17311;BME280;8773;43.300;0.394;2023-08-20T01:29:29;100006.75;;;23.75;71.74
17311;BME280;8773;43.300;0.394;2023-08-20T01:31:57;100002.44;;;23.67;71.55
17311;BME280;8773;43.300;0.394;2023-08-20T01:34:28;100009.09;;;23.59;72.29
17311;BME280;8773;43.300;0.394;2023-08-20T01:36:56;100012.28;;;23.56;72.27
17311;BME280;8773;43.300;0.394;2023-08-20T01:39:23;100018.13;;;23.60;72.68
17311;BME280;8773;43.300;0.394;2023-08-20T01:41:50;100013.03;;;23.63;72.01
17311;BME280;8773;43.300;0.394;2023-08-20T01:44:18;100006.50;;;23.65;72.10
17311;BME280;8773;43.300;0.394;2023-08-20T01:46:47;100004.94;;;23.69;72.46
17311;BME280;8773;43.300;0.394;2023-08-20T01:49:14;100024.91;;;23.81;71.85
17311;BME280;8773;43.300;0.394;2023-08-20T01:51:42;100015.31;;;23.90;71.47
17311;BME280;8773;43.300;0.394;2023-08-20T01:54:09;100021.97;;;23.94;71.03
17311;BME280;8773;43.300;0.394;2023-08-20T01:56:36;100027.66;;;24.04;70.74
17311;BME280;8773;43.300;0.394;2023-08-20T01:59:04;100029.19;;;24.23;70.19
17311;BME280;8773;43.300;0.394;2023-08-20T02:01:34;100026.34;;;24.18;70.36
17311;BME280;8773;43.300;0.394;2023-08-20T02:04:03;100022.53;;;24.19;70.08
17311;BME280;8773;43.300;0.394;2023-08-20T02:06:31;100038.72;;;24.09;70.83
17311;BME280;8773;43.300;0.394;2023-08-20T02:08:58;100038.91;;;24.19;70.21
17311;BME280;8773;43.300;0.394;2023-08-20T02:11:25;100043.06;;;24.22;70.10
17311;BME280;8773;43.300;0.394;2023-08-20T02:13:53;100040.34;;;24.22;70.00
17311;BME280;8773;43.300;0.394;2023-08-20T02:16:20;100043.53;;;24.31;69.14
17311;BME280;8773;43.300;0.394;2023-08-20T02:18:48;100044.16;;;24.09;69.94
17311;BME280;8773;43.300;0.394;2023-08-20T02:21:16;100052.59;;;24.08;69.89
17311;BME280;8773;43.300;0.394;2023-08-20T02:23:44;100039.88;;;24.13;70.05
17311;BME280;8773;43.300;0.394;2023-08-20T02:26:11;100052.81;;;23.94;70.41
17311;BME280;8773;43.300;0.394;2023-08-20T02:28:39;100045.69;;;24.05;70.41
17311;BME280;8773;43.300;0.394;2023-08-20T02:31:06;100044.41;;;24.08;69.60
17311;BME280;8773;43.300;0.394;2023-08-20T02:33:33;100050.91;;;24.18;69.15
17311;BME280;8773;43.300;0.394;2023-08-20T02:36:01;100044.59;;;24.18;69.54
17311;BME280;8773;43.300;0.394;2023-08-20T02:38:30;100047.25;;;24.01;69.83
17311;BME280;8773;43.300;0.394;2023-08-20T02:40:57;100047.25;;;24.01;70.46
17311;BME280;8773;43.300;0.394;2023-08-20T02:43:25;100043.91;;;23.99;70.53
17311;BME280;8773;43.300;0.394;2023-08-20T02:45:52;100052.94;;;23.70;71.36
17311;BME280;8773;43.300;0.394;2023-08-20T02:48:20;100050.59;;;23.61;71.18
17311;BME280;8773;43.300;0.394;2023-08-20T02:50:47;100055.19;;;23.49;72.45
17311;BME280;8773;43.300;0.394;2023-08-20T02:53:15;100040.72;;;23.49;71.94
17311;BME280;8773;43.300;0.394;2023-08-20T02:55:44;100045.25;;;23.67;71.98
17311;BME280;8773;43.300;0.394;2023-08-20T02:58:11;100054.72;;;23.52;72.39
17311;BME280;8773;43.300;0.394;2023-08-20T03:00:39;100052.13;;;23.57;72.21
17311;BME280;8773;43.300;0.394;2023-08-20T03:03:07;100057.47;;;23.64;71.82
17311;BME280;8773;43.300;0.394;2023-08-20T03:05:34;100056.50;;;23.70;71.53
17311;BME280;8773;43.300;0.394;2023-08-20T03:08:02;100051.81;;;23.77;71.53
17311;BME280;8773;43.300;0.394;2023-08-20T03:10:30;100046.50;;;23.94;70.64
17311;BME280;8773;43.300;0.394;2023-08-20T03:12:59;100055.66;;;24.00;70.39
17311;BME280;8773;43.300;0.394;2023-08-20T03:15:27;100058.03;;;23.96;70.48
17311;BME280;8773;43.300;0.394;2023-08-20T03:17:55;100053.03;;;23.93;70.20
17311;BME280;8773;43.300;0.394;2023-08-20T03:20:22;100063.13;;;23.92;70.34
17311;BME280;8773;43.300;0.394;2023-08-20T03:22:50;100062.38;;;23.85;70.76
17311;BME280;8773;43.300;0.394;2023-08-20T03:25:17;100056.00;;;24.03;70.47
17311;BME280;8773;43.300;0.394;2023-08-20T03:27:45;100060.53;;;24.09;69.67
17311;BME280;8773;43.300;0.394;2023-08-20T03:30:14;100057.53;;;24.11;70.03
17311;BME280;8773;43.300;0.394;2023-08-20T03:32:41;100067.97;;;24.14;69.58
17311;BME280;8773;43.300;0.394;2023-08-20T03:35:09;100066.31;;;24.13;69.64
17311;BME280;8773;43.300;0.394;2023-08-20T03:37:36;100078.97;;;23.84;70.96
17311;BME280;8773;43.300;0.394;2023-08-20T03:40:05;100067.63;;;24.10;69.75
17311;BME280;8773;43.300;0.394;2023-08-20T03:42:35;100082.44;;;23.91;70.62
17311;BME280;8773;43.300;0.394;2023-08-20T03:45:04;100070.81;;;23.84;70.65
17311;BME280;8773;43.300;0.394;2023-08-20T03:47:33;100072.94;;;23.82;70.39
17311;BME280;8773;43.300;0.394;2023-08-20T03:50:01;100065.59;;;23.82;70.93
17311;BME280;8773;43.300;0.394;2023-08-20T03:52:28;100073.91;;;23.87;70.12
17311;BME280;8773;43.300;0.394;2023-08-20T03:54:55;100071.53;;;23.91;70.34
17311;BME280;8773;43.300;0.394;2023-08-20T03:57:23;100075.19;;;23.85;71.04
17311;BME280;8773;43.300;0.394;2023-08-20T03:59:59;100076.84;;;23.86;70.40
17311;BME280;8773;43.300;0.394;2023-08-20T04:02:27;100077.50;;;23.70;71.04
17311;BME280;8773;43.300;0.394;2023-08-20T04:04:57;100069.66;;;24.03;69.71
17311;BME280;8773;43.300;0.394;2023-08-20T04:07:24;100072.03;;;24.00;70.22
17311;BME280;8773;43.300;0.394;2023-08-20T04:09:52;100078.78;;;24.20;69.16
17311;BME280;8773;43.300;0.394;2023-08-20T04:12:19;100060.16;;;24.17;69.41
17311;BME280;8773;43.300;0.394;2023-08-20T04:14:46;100084.50;;;24.07;69.64
17311;BME280;8773;43.300;0.394;2023-08-20T04:17:14;100077.47;;;24.11;69.39
17311;BME280;8773;43.300;0.394;2023-08-20T04:19:41;100078.31;;;24.00;69.85
17311;BME280;8773;43.300;0.394;2023-08-20T04:22:10;100079.91;;;23.78;70.33
17311;BME280;8773;43.300;0.394;2023-08-20T04:24:47;100078.53;;;23.87;70.47
17311;BME280;8773;43.300;0.394;2023-08-20T04:27:14;100086.69;;;23.87;70.21
17311;BME280;8773;43.300;0.394;2023-08-20T04:29:42;100086.84;;;23.92;70.03
17311;BME280;8773;43.300;0.394;2023-08-20T04:32:09;100090.41;;;24.04;69.86
17311;BME280;8773;43.300;0.394;2023-08-20T04:34:36;100086.84;;;23.92;69.87
17311;BME280;8773;43.300;0.394;2023-08-20T04:37:04;100092.06;;;23.93;69.69
17311;BME280;8773;43.300;0.394;2023-08-20T04:39:33;100100.84;;;23.95;69.99
17311;BME280;8773;43.300;0.394;2023-08-20T04:42:00;100103.66;;;23.89;70.20
17311;BME280;8773;43.300;0.394;2023-08-20T04:44:28;100099.41;;;23.93;69.93
17311;BME280;8773;43.300;0.394;2023-08-20T04:46:56;100102.69;;;23.83;70.29
17311;BME280;8773;43.300;0.394;2023-08-20T04:49:23;100102.81;;;23.88;70.12
17311;BME280;8773;43.300;0.394;2023-08-20T04:51:51;100104.28;;;24.03;69.16
17311;BME280;8773;43.300;0.394;2023-08-20T04:54:18;100102.25;;;23.98;69.67
17311;BME280;8773;43.300;0.394;2023-08-20T04:56:47;100106.66;;;23.99;70.28
17311;BME280;8773;43.300;0.394;2023-08-20T04:59:14;100101.91;;;24.06;69.41
17311;BME280;8773;43.300;0.394;2023-08-20T05:01:41;100107.22;;;23.89;69.79
17311;BME280;8773;43.300;0.394;2023-08-20T05:04:12;100102.13;;;23.93;69.72
17311;BME280;8773;43.300;0.394;2023-08-20T05:06:39;100102.03;;;23.70;70.94
17311;BME280;8773;43.300;0.394;2023-08-20T05:09:07;100104.97;;;23.86;70.09
17311;BME280;8773;43.300;0.394;2023-08-20T05:11:34;100105.25;;;24.08;69.53
17311;BME280;8773;43.300;0.394;2023-08-20T05:14:03;100110.91;;;23.95;70.07
17311;BME280;8773;43.300;0.394;2023-08-20T05:16:30;100110.09;;;24.06;69.75
17311;BME280;8773;43.300;0.394;2023-08-20T05:18:58;100110.56;;;24.03;70.21
17311;BME280;8773;43.300;0.394;2023-08-20T05:21:25;100104.97;;;24.10;69.38
17311;BME280;8773;43.300;0.394;2023-08-20T05:23:53;100113.31;;;24.26;68.67
17311;BME280;8773;43.300;0.394;2023-08-20T05:26:21;100109.28;;;24.06;69.34
17311;BME280;8773;43.300;0.394;2023-08-20T05:28:49;100108.44;;;24.05;69.42
17311;BME280;8773;43.300;0.394;2023-08-20T05:31:17;100111.41;;;24.04;69.48
17311;BME280;8773;43.300;0.394;2023-08-20T05:33:45;100109.59;;;23.86;70.71
17311;BME280;8773;43.300;0.394;2023-08-20T05:36:13;100109.69;;;23.79;71.00
17311;BME280;8773;43.300;0.394;2023-08-20T05:38:40;100108.38;;;23.82;70.81
17311;BME280;8773;43.300;0.394;2023-08-20T05:41:08;100112.09;;;24.11;69.70
17311;BME280;8773;43.300;0.394;2023-08-20T05:43:35;100112.59;;;24.08;69.72
17311;BME280;8773;43.300;0.394;2023-08-20T05:46:03;100112.03;;;23.76;70.99
17311;BME280;8773;43.300;0.394;2023-08-20T05:48:32;100117.16;;;23.84;70.81
17311;BME280;8773;43.300;0.394;2023-08-20T05:50:59;100114.25;;;23.97;69.88
17311;BME280;8773;43.300;0.394;2023-08-20T05:53:27;100111.03;;;24.00;70.02
17311;BME280;8773;43.300;0.394;2023-08-20T05:55:55;100121.72;;;24.13;69.23
17311;BME280;8773;43.300;0.394;2023-08-20T05:58:22;100119.81;;;24.14;69.37
17311;BME280;8773;43.300;0.394;2023-08-20T06:00:50;100118.34;;;24.41;68.56
17311;BME280;8773;43.300;0.394;2023-08-20T06:03:17;100115.47;;;24.59;67.68
17311;BME280;8773;43.300;0.394;2023-08-20T06:05:46;100116.78;;;24.57;67.95
17311;BME280;8773;43.300;0.394;2023-08-20T06:08:13;100118.34;;;24.41;68.74
17311;BME280;8773;43.300;0.394;2023-08-20T06:10:41;100119.97;;;24.54;68.20
17311;BME280;8773;43.300;0.394;2023-08-20T06:13:08;100125.81;;;23.81;70.40
17311;BME280;8773;43.300;0.394;2023-08-20T06:15:35;100129.63;;;23.91;70.20
17311;BME280;8773;43.300;0.394;2023-08-20T06:18:03;100124.81;;;24.28;68.96
17311;BME280;8773;43.300;0.394;2023-08-20T06:20:34;100117.94;;;24.38;68.30
17311;BME280;8773;43.300;0.394;2023-08-20T06:23:03;100121.03;;;24.53;67.80
17311;BME280;8773;43.300;0.394;2023-08-20T06:25:31;100124.28;;;24.50;67.83
17311;BME280;8773;43.300;0.394;2023-08-20T06:27:58;100130.81;;;24.49;68.17
17311;BME280;8773;43.300;0.394;2023-08-20T06:30:25;100123.28;;;24.79;67.28
17311;BME280;8773;43.300;0.394;2023-08-20T06:32:53;100128.59;;;24.98;66.71
17311;BME280;8773;43.300;0.394;2023-08-20T06:35:20;100126.81;;;25.15;65.91
17311;BME280;8773;43.300;0.394;2023-08-20T06:37:48;100129.28;;;25.16;65.88
17311;BME280;8773;43.300;0.394;2023-08-20T06:40:18;100121.81;;;25.12;66.12
17311;BME280;8773;43.300;0.394;2023-08-20T06:42:46;100131.25;;;24.92;66.58
17311;BME280;8773;43.300;0.394;2023-08-20T06:45:13;100125.44;;;24.89;66.57
17311;BME280;8773;43.300;0.394;2023-08-20T06:47:41;100135.91;;;24.45;67.83
17311;BME280;8773;43.300;0.394;2023-08-20T06:50:09;100146.66;;;24.28;68.91
17311;BME280;8773;43.300;0.394;2023-08-20T06:52:36;100136.25;;;24.72;67.38
17311;BME280;8773;43.300;0.394;2023-08-20T06:55:04;100137.97;;;25.02;66.53
17311;BME280;8773;43.300;0.394;2023-08-20T06:57:33;100138.69;;;25.09;65.71
17311;BME280;8773;43.300;0.394;2023-08-20T07:00:01;100141.53;;;25.14;65.95
17311;BME280;8773;43.300;0.394;2023-08-20T07:02:29;100143.91;;;24.99;66.14
17311;BME280;8773;43.300;0.394;2023-08-20T07:04:56;100134.44;;;24.89;67.00
17311;BME280;8773;43.300;0.394;2023-08-20T07:07:24;100142.13;;;25.16;65.90
17311;BME280;8773;43.300;0.394;2023-08-20T07:09:51;100144.25;;;25.25;66.15
17311;BME280;8773;43.300;0.394;2023-08-20T07:12:19;100151.00;;;25.35;65.46
17311;BME280;8773;43.300;0.394;2023-08-20T07:14:48;100141.06;;;25.45;64.91
17311;BME280;8773;43.300;0.394;2023-08-20T07:17:15;100144.28;;;25.42;65.20
17311;BME280;8773;43.300;0.394;2023-08-20T07:19:43;100143.41;;;25.53;64.39
17311;BME280;8773;43.300;0.394;2023-08-20T07:22:10;100146.25;;;25.58;64.29
17311;BME280;8773;43.300;0.394;2023-08-20T07:24:38;100141.97;;;25.63;64.16
17311;BME280;8773;43.300;0.394;2023-08-20T07:27:05;100147.91;;;25.71;64.13
17311;BME280;8773;43.300;0.394;2023-08-20T07:29:32;100142.69;;;25.70;63.89
17311;BME280;8773;43.300;0.394;2023-08-20T07:32:01;100147.31;;;25.69;63.95
17311;BME280;8773;43.300;0.394;2023-08-20T07:34:29;100144.59;;;25.57;64.34
17311;BME280;8773;43.300;0.394;2023-08-20T07:36:56;100154.13;;;25.83;63.66
17311;BME280;8773;43.300;0.394;2023-08-20T07:39:24;100154.72;;;25.85;63.65
17311;BME280;8773;43.300;0.394;2023-08-20T07:41:51;100160.13;;;25.97;63.00
17311;BME280;8773;43.300;0.394;2023-08-20T07:44:19;100162.28;;;25.95;63.46
17311;BME280;8773;43.300;0.394;2023-08-20T07:46:46;100162.94;;;26.02;63.05
17311;BME280;8773;43.300;0.394;2023-08-20T07:49:15;100154.00;;;25.50;64.42
17311;BME280;8773;43.300;0.394;2023-08-20T07:51:43;100162.91;;;25.57;64.11
17311;BME280;8773;43.300;0.394;2023-08-20T07:54:10;100162.47;;;25.48;64.73
17311;BME280;8773;43.300;0.394;2023-08-20T07:56:37;100168.22;;;25.92;63.15
17311;BME280;8773;43.300;0.394;2023-08-20T07:59:05;100161.78;;;25.81;63.44
17311;BME280;8773;43.300;0.394;2023-08-20T08:01:32;100158.78;;;25.43;64.95
17311;BME280;8773;43.300;0.394;2023-08-20T08:04:00;100171.38;;;25.84;63.47
17311;BME280;8773;43.300;0.394;2023-08-20T08:06:29;100168.19;;;26.20;62.48
17311;BME280;8773;43.300;0.394;2023-08-20T08:08:57;100170.91;;;26.04;62.84
17311;BME280;8773;43.300;0.394;2023-08-20T08:11:41;100163.81;;;26.36;62.03
17311;BME280;8773;43.300;0.394;2023-08-20T08:14:08;100173.94;;;26.36;61.83
17311;BME280;8773;43.300;0.394;2023-08-20T08:16:36;100164.66;;;26.37;61.24
17311;BME280;8773;43.300;0.394;2023-08-20T08:19:04;100171.94;;;26.14;62.32
17311;BME280;8773;43.300;0.394;2023-08-20T08:21:32;100173.69;;;26.20;61.77
17311;BME280;8773;43.300;0.394;2023-08-20T08:24:00;100177.75;;;26.51;61.64
17311;BME280;8773;43.300;0.394;2023-08-20T08:26:27;100181.88;;;26.20;61.98
17311;BME280;8773;43.300;0.394;2023-08-20T08:28:55;100176.13;;;26.05;62.73
17311;BME280;8773;43.300;0.394;2023-08-20T08:31:23;100183.81;;;25.75;63.43
17311;BME280;8773;43.300;0.394;2023-08-20T08:33:50;100178.81;;;25.72;63.81
17311;BME280;8773;43.300;0.394;2023-08-20T08:36:18;100171.94;;;26.14;62.86
17311;BME280;8773;43.300;0.394;2023-08-20T08:38:47;100173.59;;;26.32;61.87
17311;BME280;8773;43.300;0.394;2023-08-20T08:41:14;100171.47;;;26.51;61.06
17311;BME280;8773;43.300;0.394;2023-08-20T08:43:42;100181.91;;;25.92;63.00
17311;BME280;8773;43.300;0.394;2023-08-20T08:46:12;100170.94;;;26.37;61.80
17311;BME280;8773;43.300;0.394;2023-08-20T08:48:40;100172.06;;;26.75;60.09
17311;BME280;8773;43.300;0.394;2023-08-20T08:51:08;100165.09;;;26.84;60.22
17311;BME280;8773;43.300;0.394;2023-08-20T08:53:36;100170.00;;;27.20;59.87
17311;BME280;8773;43.300;0.394;2023-08-20T08:56:05;100165.47;;;27.31;58.84
17311;BME280;8773;43.300;0.394;2023-08-20T08:58:32;100165.47;;;27.31;58.74
17311;BME280;8773;43.300;0.394;2023-08-20T09:01:00;100170.25;;;26.97;59.77
17311;BME280;8773;43.300;0.394;2023-08-20T09:03:27;100170.31;;;27.24;59.21
17311;BME280;8773;43.300;0.394;2023-08-20T09:05:58;100165.66;;;27.68;58.00
17311;BME280;8773;43.300;0.394;2023-08-20T09:08:27;100171.34;;;27.88;56.50
17311;BME280;8773;43.300;0.394;2023-08-20T09:10:57;100170.81;;;27.65;57.42
17311;BME280;8773;43.300;0.394;2023-08-20T09:13:33;100166.69;;;27.40;58.16
17311;BME280;8773;43.300;0.394;2023-08-20T09:16:03;100168.41;;;26.86;60.06
17311;BME280;8773;43.300;0.394;2023-08-20T09:18:31;100171.06;;;27.63;58.70
17311;BME280;8773;43.300;0.394;2023-08-20T09:20:59;100165.13;;;27.98;56.86
17311;BME280;8773;43.300;0.394;2023-08-20T09:23:28;100170.97;;;28.34;56.48
17311;BME280;8773;43.300;0.394;2023-08-20T09:25:56;100175.00;;;28.63;56.32
17311;BME280;8773;43.300;0.394;2023-08-20T09:28:24;100165.13;;;27.98;55.62
17311;BME280;8773;43.300;0.394;2023-08-20T09:30:56;100163.69;;;28.17;57.06
17311;BME280;8773;43.300;0.394;2023-08-20T09:33:24;100173.41;;;28.30;56.62
17311;BME280;8773;43.300;0.394;2023-08-20T09:35:52;100175.56;;;28.01;56.42
17311;BME280;8773;43.300;0.394;2023-08-20T09:38:19;100170.72;;;27.54;57.58
17311;BME280;8773;43.300;0.394;2023-08-20T09:40:49;100167.78;;;26.12;62.40
17311;BME280;8773;43.300;0.394;2023-08-20T09:43:16;100167.25;;;26.99;60.01
17311;BME280;8773;43.300;0.394;2023-08-20T09:45:46;100168.09;;;27.43;58.47
17311;BME280;8773;43.300;0.394;2023-08-20T09:48:18;100172.59;;;27.76;57.84
17311;BME280;8773;43.300;0.394;2023-08-20T09:50:47;100169.16;;;28.17;56.62
17311;BME280;8773;43.300;0.394;2023-08-20T09:53:22;100168.56;;;28.79;55.25
17311;BME280;8773;43.300;0.394;2023-08-20T09:55:54;100171.50;;;28.68;54.70
17311;BME280;8773;43.300;0.394;2023-08-20T09:58:23;100171.34;;;28.90;54.65
17311;BME280;8773;43.300;0.394;2023-08-20T10:00:50;100159.22;;;29.28;53.39
17311;BME280;8773;43.300;0.394;2023-08-20T10:03:20;100169.13;;;28.49;55.54
17311;BME280;8773;43.300;0.394;2023-08-20T10:05:49;100166.78;;;29.05;54.01
17311;BME280;8773;43.300;0.394;2023-08-20T10:08:17;100169.94;;;28.45;54.17
17311;BME280;8773;43.300;0.394;2023-08-20T10:10:45;100167.81;;;28.57;54.85
17311;BME280;8773;43.300;0.394;2023-08-20T10:13:14;100175.09;;;28.68;54.85
17311;BME280;8773;43.300;0.394;2023-08-20T10:15:42;100167.53;;;28.96;54.57
17311;BME280;8773;43.300;0.394;2023-08-20T10:18:12;100163.13;;;28.95;54.13
17311;BME280;8773;43.300;0.394;2023-08-20T10:20:41;100159.50;;;29.36;53.83
17311;BME280;8773;43.300;0.394;2023-08-20T10:23:12;100168.13;;;29.65;52.76
17311;BME280;8773;43.300;0.394;2023-08-20T10:25:42;100167.03;;;29.76;53.09
17311;BME280;8773;43.300;0.394;2023-08-20T10:28:21;100160.81;;;30.37;51.06
17311;BME280;8773;43.300;0.394;2023-08-20T10:31:05;100165.75;;;30.30;50.39
17311;BME280;8773;43.300;0.394;2023-08-20T10:33:37;100176.06;;;29.51;52.22
17311;BME280;8773;43.300;0.394;2023-08-20T10:36:19;100160.97;;;29.64;52.77
17311;BME280;8773;43.300;0.394;2023-08-20T10:38:47;100175.28;;;29.66;52.67
17311;BME280;8773;43.300;0.394;2023-08-20T10:41:15;100169.44;;;29.42;53.40
17311;BME280;8773;43.300;0.394;2023-08-20T10:43:46;100182.41;;;29.00;53.98
17311;BME280;8773;43.300;0.394;2023-08-20T10:46:18;100181.19;;;28.75;55.15
17311;BME280;8773;43.300;0.394;2023-08-20T10:48:48;100180.59;;;28.68;55.05
17311;BME280;8773;43.300;0.394;2023-08-20T10:51:18;100170.88;;;29.65;52.94
17311;BME280;8773;43.300;0.394;2023-08-20T10:54:03;100182.84;;;28.76;54.83
17311;BME280;8773;43.300;0.394;2023-08-20T10:56:41;100178.22;;;28.87;54.58
17311;BME280;8773;43.300;0.394;2023-08-20T10:59:10;100162.41;;;29.14;53.75
17311;BME280;8773;43.300;0.394;2023-08-20T11:01:40;100165.38;;;29.60;53.14
17311;BME280;8773;43.300;0.394;2023-08-20T11:04:10;100164.34;;;29.92;52.28
17311;BME280;8773;43.300;0.394;2023-08-20T11:06:39;100179.69;;;29.05;53.71
17311;BME280;8773;43.300;0.394;2023-08-20T11:09:06;100178.81;;;28.57;55.34
17311;BME280;8773;43.300;0.394;2023-08-20T11:11:34;100175.81;;;28.59;55.96
17311;BME280;8773;43.300;0.394;2023-08-20T11:14:05;100172.78;;;28.60;55.31
17311;BME280;8773;43.300;0.394;2023-08-20T11:16:36;100168.63;;;28.95;54.51
17311;BME280;8773;43.300;0.394;2023-08-20T11:19:04;100173.81;;;28.81;55.20
17311;BME280;8773;43.300;0.394;2023-08-20T11:21:32;100164.00;;;29.73;53.30
17311;BME280;8773;43.300;0.394;2023-08-20T11:24:01;100163.25;;;29.93;52.52
17311;BME280;8773;43.300;0.394;2023-08-20T11:26:29;100166.75;;;29.73;52.86
17311;BME280;8773;43.300;0.394;2023-08-20T11:28:56;100172.78;;;29.55;52.24
17311;BME280;8773;43.300;0.394;2023-08-20T11:31:25;100168.34;;;29.48;52.88
17311;BME280;8773;43.300;0.394;2023-08-20T11:33:53;100161.22;;;29.58;52.89
17311;BME280;8773;43.300;0.394;2023-08-20T11:36:23;100160.84;;;29.24;54.04
17311;BME280;8773;43.300;0.394;2023-08-20T11:38:51;100162.56;;;29.45;53.78
17311;BME280;8773;43.300;0.394;2023-08-20T11:41:21;100168.13;;;29.65;53.80
17311;BME280;8773;43.300;0.394;2023-08-20T11:43:48;100160.16;;;29.74;53.08
17311;BME280;8773;43.300;0.394;2023-08-20T11:46:19;100159.41;;;29.94;52.57
17311;BME280;8773;43.300;0.394;2023-08-20T11:49:03;100156.91;;;29.82;52.42
17311;BME280;8773;43.300;0.394;2023-08-20T11:51:35;100165.34;;;29.55;52.97
17311;BME280;8773;43.300;0.394;2023-08-20T11:54:04;100159.25;;;29.43;53.16
17311;BME280;8773;43.300;0.394;2023-08-20T11:56:34;100157.66;;;29.62;53.99
17311;BME280;8773;43.300;0.394;2023-08-20T11:59:02;100158.00;;;29.81;53.11
17311;BME280;8773;43.300;0.394;2023-08-20T12:01:32;100150.84;;;29.85;53.05
17311;BME280;8773;43.300;0.394;2023-08-20T12:04:00;100151.88;;;29.59;52.51
17311;BME280;8773;43.300;0.394;2023-08-20T12:06:28;100159.53;;;27.88;57.02
17311;BME280;8773;43.300;0.394;2023-08-20T12:08:56;100162.50;;;27.54;59.65
17311;BME280;8773;43.300;0.394;2023-08-20T12:11:24;100152.28;;;28.68;57.12
17311;BME280;8773;43.300;0.394;2023-08-20T12:13:53;100155.16;;;28.93;54.85
17311;BME280;8773;43.300;0.394;2023-08-20T12:16:22;100138.28;;;29.32;53.87
17311;BME280;8773;43.300;0.394;2023-08-20T12:18:50;100151.50;;;29.35;54.21
17311;BME280;8773;43.300;0.394;2023-08-20T12:21:17;100144.19;;;29.61;53.90
17311;BME280;8773;43.300;0.394;2023-08-20T12:23:45;100147.00;;;29.86;53.41
17311;BME280;8773;43.300;0.394;2023-08-20T12:26:12;100138.78;;;30.11;53.35
17311;BME280;8773;43.300;0.394;2023-08-20T12:28:40;100139.88;;;30.15;52.22
17311;BME280;8773;43.300;0.394;2023-08-20T12:31:08;100140.97;;;30.09;51.93
17311;BME280;8773;43.300;0.394;2023-08-20T12:33:36;100132.72;;;30.09;52.20
17311;BME280;8773;43.300;0.394;2023-08-20T12:36:04;100141.81;;;30.15;51.80
17311;BME280;8773;43.300;0.394;2023-08-20T12:38:32;100137.63;;;29.82;52.54
17311;BME280;8773;43.300;0.394;2023-08-20T12:40:59;100136.50;;;29.68;53.19
17311;BME280;8773;43.300;0.394;2023-08-20T12:43:27;100133.25;;;30.11;52.35
17311;BME280;8773;43.300;0.394;2023-08-20T12:45:54;100134.16;;;29.24;53.89
17311;BME280;8773;43.300;0.394;2023-08-20T12:48:23;100135.63;;;29.52;53.23
17311;BME280;8773;43.300;0.394;2023-08-20T12:50:51;100135.47;;;28.64;56.12
17311;BME280;8773;43.300;0.394;2023-08-20T12:53:18;100131.06;;;29.10;54.98
17311;BME280;8773;43.300;0.394;2023-08-20T12:55:45;100129.06;;;29.68;53.94
17311;BME280;8773;43.300;0.394;2023-08-20T12:58:13;100114.81;;;30.07;52.44
17311;BME280;8773;43.300;0.394;2023-08-20T13:00:40;100125.44;;;29.52;53.27
17311;BME280;8773;43.300;0.394;2023-08-20T13:03:09;100123.75;;;28.37;57.00
17311;BME280;8773;43.300;0.394;2023-08-20T13:05:38;100122.66;;;28.43;56.95
17311;BME280;8773;43.300;0.394;2023-08-20T13:08:07;100120.91;;;29.16;55.02